createdAt,value
2019-02-27T00:00:31.149Z,0.20
2019-02-27T00:02:59.612Z,0.40
2019-02-27T00:05:28.111Z,0.40
2019-02-27T00:07:56.578Z,0.40
2019-02-27T00:10:25.090Z,0.50
2019-02-27T00:12:53.603Z,0.40
2019-02-27T00:15:22.044Z,0.40
2019-02-27T00:17:51.377Z,0.30
2019-02-27T00:20:20.504Z,0.40
2019-02-27T00:22:50.653Z,0.50
2019-02-27T00:25:19.151Z,0.30
2019-02-27T00:27:49.168Z,0.20
2019-02-27T00:30:17.895Z,0.20
2019-02-27T00:32:50.861Z,0.50
2019-02-27T00:35:16.542Z,0.40
2019-02-27T00:37:44.971Z,0.30
2019-02-27T00:40:13.425Z,0.20
2019-02-27T00:42:41.873Z,0.20
2019-02-27T00:45:11.356Z,0.30
2019-02-27T00:47:39.854Z,0.30
2019-02-27T00:50:09.748Z,-0.10
2019-02-27T00:52:38.187Z,-0.30
2019-02-27T00:55:07.653Z,-0.40
2019-02-27T00:57:36.116Z,-0.20
2019-02-27T01:00:07.627Z,-0.10
2019-02-27T01:02:36.085Z,-0.10
2019-02-27T01:05:06.216Z,-0.10
2019-02-27T01:07:36.247Z,-0.20
2019-02-27T01:10:07.018Z,-0.30
2019-02-27T01:12:35.486Z,-0.30
2019-02-27T01:15:10.699Z,-0.20
2019-02-27T01:17:38.682Z,-0.30
2019-02-27T01:20:11.510Z,-0.50
2019-02-27T01:22:40.532Z,-0.60
2019-02-27T01:25:09.127Z,-0.50
2019-02-27T01:27:38.191Z,-0.40
2019-02-27T01:30:10.159Z,-0.30
2019-02-27T01:32:38.630Z,-0.30
2019-02-27T01:35:09.308Z,-0.30
2019-02-27T01:37:37.757Z,-0.30
2019-02-27T01:40:09.216Z,-0.40
2019-02-27T01:42:37.668Z,-0.60
2019-02-27T01:45:09.354Z,-0.40
2019-02-27T01:47:37.803Z,-0.50
2019-02-27T01:50:27.022Z,-0.60
2019-02-27T01:52:55.466Z,-0.80
2019-02-27T01:55:23.888Z,-1.30
2019-02-27T01:57:52.326Z,-1.20
2019-02-27T02:00:23.008Z,-1.00
2019-02-27T02:02:51.006Z,-1.10
2019-02-27T02:05:19.469Z,-1.10
2019-02-27T02:07:48.564Z,-1.30
2019-02-27T02:10:17.571Z,-1.10
2019-02-27T02:12:49.179Z,-1.00
2019-02-27T02:15:27.304Z,-1.00
2019-02-27T02:18:17.355Z,-1.00
2019-02-27T02:20:54.742Z,-1.00
2019-02-27T02:23:44.973Z,-1.10
2019-02-27T02:26:42.920Z,-1.10
2019-02-27T02:29:36.752Z,-1.10
2019-02-27T02:32:22.982Z,-1.20
2019-02-27T02:35:14.792Z,-1.10
2019-02-27T02:37:45.421Z,-1.10
2019-02-27T02:40:30.852Z,-1.10
2019-02-27T02:43:31.658Z,-1.20
2019-02-27T02:46:12.057Z,-1.40
2019-02-27T02:49:10.323Z,-1.80
2019-02-27T02:52:07.212Z,-1.70
2019-02-27T02:54:47.783Z,-1.60
2019-02-27T02:57:38.609Z,-1.40
2019-02-27T03:00:19.216Z,-1.40
2019-02-27T03:03:05.774Z,-1.40
2019-02-27T03:05:49.405Z,-1.40
2019-02-27T03:08:38.998Z,-1.40
2019-02-27T03:11:27.046Z,-1.30
2019-02-27T03:14:28.921Z,-1.20
2019-02-27T03:17:08.610Z,-1.30
2019-02-27T03:19:46.076Z,-1.50
2019-02-27T03:22:29.304Z,-1.70
2019-02-27T03:25:04.052Z,-2.20
2019-02-27T03:27:45.713Z,-2.40
2019-02-27T03:30:36.303Z,-2.30
2019-02-27T03:33:26.812Z,-2.20
2019-02-27T03:35:59.933Z,-1.90
2019-02-27T03:38:49.703Z,-1.60
2019-02-27T03:41:33.145Z,-1.60
2019-02-27T03:44:10.306Z,-1.60
2019-02-27T03:46:59.452Z,-1.80
2019-02-27T03:49:52.705Z,-2.10
2019-02-27T03:53:00.079Z,-2.00
2019-02-27T03:55:34.472Z,-1.90
2019-02-27T03:58:32.791Z,-1.70
2019-02-27T04:01:09.915Z,-1.70
2019-02-27T04:04:03.934Z,-1.70
2019-02-27T04:06:47.003Z,-1.70
2019-02-27T04:09:18.587Z,-1.70
2019-02-27T04:11:45.636Z,-1.90
2019-02-27T04:14:28.964Z,-1.90
2019-02-27T04:16:57.514Z,-2.00
2019-02-27T04:19:26.027Z,-2.00
2019-02-27T04:22:00.644Z,-2.00
2019-02-27T04:24:24.613Z,-1.90
2019-02-27T04:26:53.497Z,-1.80
2019-02-27T04:29:22.024Z,-1.70
2019-02-27T04:31:50.458Z,-1.80
2019-02-27T04:34:18.899Z,-2.10
2019-02-27T04:36:47.813Z,-2.30
2019-02-27T04:39:16.263Z,-2.40
2019-02-27T04:41:44.693Z,-2.50
2019-02-27T04:44:13.147Z,-2.40
2019-02-27T04:46:41.592Z,-2.30
2019-02-27T04:49:10.053Z,-2.30
2019-02-27T04:51:38.483Z,-2.20
2019-02-27T04:54:07.551Z,-2.10
2019-02-27T04:56:36.052Z,-2.30
2019-02-27T04:59:04.522Z,-2.20
2019-02-27T05:01:36.423Z,-2.20
2019-02-27T05:04:03.117Z,-2.30
2019-02-27T05:06:31.612Z,-2.20
2019-02-27T05:09:00.760Z,-2.20
2019-02-27T05:11:29.331Z,-2.20
2019-02-27T05:13:57.781Z,-2.10
2019-02-27T05:16:26.243Z,-2.40
2019-02-27T05:18:54.704Z,-2.50
2019-02-27T05:21:23.181Z,-2.30
2019-02-27T05:23:51.648Z,-2.30
2019-02-27T05:26:20.101Z,-2.30
2019-02-27T05:28:48.596Z,-2.30
2019-02-27T05:31:19.081Z,-2.30
2019-02-27T05:33:47.260Z,-2.40
2019-02-27T05:36:15.728Z,-2.40
2019-02-27T05:38:44.184Z,-2.60
2019-02-27T05:41:12.695Z,-2.80
2019-02-27T05:43:41.142Z,-2.80
2019-02-27T05:46:09.599Z,-2.60
2019-02-27T05:48:38.034Z,-2.70
2019-02-27T05:51:07.584Z,-2.70
2019-02-27T05:53:36.708Z,-2.50
2019-02-27T05:56:05.151Z,-2.60
2019-02-27T05:58:33.590Z,-2.50
2019-02-27T06:01:04.875Z,-2.40
2019-02-27T06:03:32.206Z,-2.50
2019-02-27T06:06:00.662Z,-2.50
2019-02-27T06:08:29.124Z,-2.50
2019-02-27T06:10:57.594Z,-2.70
2019-02-27T06:13:26.119Z,-2.70
2019-02-27T06:15:54.563Z,-2.70
2019-02-27T06:18:23.758Z,-2.60
2019-02-27T06:20:52.327Z,-2.70
2019-02-27T06:23:20.759Z,-2.80
2019-02-27T06:25:49.235Z,-2.70
2019-02-27T06:28:18.845Z,-2.40
2019-02-27T06:30:47.885Z,-3.00
2019-02-27T06:33:16.368Z,-2.90
2019-02-27T06:35:44.802Z,-2.50
2019-02-27T06:38:13.241Z,-2.60
2019-02-27T06:40:42.306Z,-2.90
2019-02-27T06:43:11.492Z,-2.80
2019-02-27T06:45:39.928Z,-2.50
2019-02-27T06:48:10.221Z,-2.60
2019-02-27T06:50:38.538Z,-2.40
2019-02-27T06:53:06.995Z,-2.30
2019-02-27T06:55:35.476Z,-2.20
2019-02-27T06:58:03.973Z,-2.30
2019-02-27T07:00:35.756Z,-2.70
2019-02-27T07:03:02.600Z,-2.90
2019-02-27T07:05:31.031Z,-2.90
2019-02-27T07:08:02.116Z,-2.70
2019-02-27T07:10:29.659Z,-2.40
2019-02-27T07:12:58.111Z,-2.10
2019-02-27T07:15:26.589Z,-1.80
2019-02-27T07:17:55.038Z,-1.40
2019-02-27T07:20:24.517Z,-1.10
2019-02-27T07:22:53.731Z,-1.00
2019-02-27T07:25:22.171Z,-0.60
2019-02-27T07:27:50.675Z,-0.40
2019-02-27T07:30:20.062Z,-0.30
2019-02-27T07:32:48.781Z,-0.30
2019-02-27T07:35:17.279Z,0.10
2019-02-27T07:37:48.115Z,0.40
2019-02-27T07:40:17.067Z,0.60
2019-02-27T07:42:45.507Z,0.80
2019-02-27T07:45:19.284Z,0.90
2019-02-27T07:47:47.720Z,1.10
2019-02-27T07:50:20.527Z,1.60
2019-02-27T07:52:49.111Z,2.00
2019-02-27T07:55:22.686Z,2.40
2019-02-27T07:57:48.669Z,2.70
2019-02-27T08:00:23.445Z,2.70
2019-02-27T08:02:51.887Z,2.90
2019-02-27T08:05:20.400Z,3.20
2019-02-27T08:07:49.767Z,3.20
2019-02-27T08:10:25.476Z,3.50
2019-02-27T08:12:56.509Z,3.70
2019-02-27T08:15:25.311Z,4.20
2019-02-27T08:17:57.661Z,4.40
2019-02-27T08:20:24.068Z,4.40
2019-02-27T08:22:52.508Z,4.80
2019-02-27T08:25:20.939Z,5.00
2019-02-27T08:27:49.356Z,5.30
2019-02-27T08:30:23.948Z,5.10
2019-02-27T08:32:52.443Z,5.30
2019-02-27T08:35:20.910Z,5.60
2019-02-27T08:37:49.343Z,5.70
2019-02-27T08:40:17.798Z,6.20
2019-02-27T08:42:46.210Z,6.50
2019-02-27T08:45:20.510Z,6.90
2019-02-27T08:47:49.321Z,7.20
2019-02-27T08:50:21.576Z,7.40
2019-02-27T08:52:51.498Z,7.30
2019-02-27T08:55:22.603Z,7.60
2019-02-27T08:57:55.819Z,7.80
2019-02-27T09:00:29.402Z,7.90
2019-02-27T09:03:02.494Z,8.10
2019-02-27T09:05:28.243Z,8.50
2019-02-27T09:07:56.681Z,8.70
2019-02-27T09:10:26.722Z,9.10
2019-02-27T09:13:04.910Z,9.10
2019-02-27T09:15:26.319Z,9.50
2019-02-27T09:17:54.742Z,9.60
2019-02-27T09:20:23.175Z,9.80
2019-02-27T09:22:51.604Z,10.00
2019-02-27T09:25:23.688Z,10.00
2019-02-27T09:27:50.262Z,10.00
2019-02-27T09:30:28.921Z,10.30
2019-02-27T09:32:53.941Z,10.70
2019-02-27T09:35:22.387Z,10.70
2019-02-27T09:37:51.848Z,11.00
2019-02-27T09:40:24.705Z,11.10
2019-02-27T09:42:53.978Z,11.10
2019-02-27T09:45:34.893Z,11.20
2019-02-27T09:48:03.471Z,10.90
2019-02-27T09:50:39.969Z,11.50
2019-02-27T09:53:08.406Z,11.70
2019-02-27T09:55:37.004Z,12.10
2019-02-27T09:58:10.375Z,12.10
2019-02-27T10:00:51.751Z,12.20
2019-02-27T10:03:21.402Z,12.50
2019-02-27T10:05:50.003Z,12.40
2019-02-27T10:08:18.535Z,12.60
2019-02-27T10:10:46.999Z,12.50
2019-02-27T10:13:15.474Z,12.70
2019-02-27T10:15:43.913Z,13.00
2019-02-27T10:18:12.426Z,13.00
2019-02-27T10:20:40.925Z,12.80
2019-02-27T10:23:09.357Z,13.20
2019-02-27T10:25:37.789Z,12.80
2019-02-27T10:28:06.406Z,12.60
2019-02-27T10:30:34.914Z,13.20
2019-02-27T10:33:03.643Z,13.10
2019-02-27T10:35:34.582Z,12.80
2019-02-27T10:38:02.693Z,13.90
2019-02-27T10:40:31.278Z,13.80
2019-02-27T10:42:59.744Z,14.30
2019-02-27T10:45:28.164Z,13.70
2019-02-27T10:47:56.654Z,14.00
2019-02-27T10:50:25.071Z,14.60
2019-02-27T10:52:53.544Z,14.30
2019-02-27T10:55:22.920Z,14.70
2019-02-27T10:57:51.526Z,14.60
2019-02-27T11:00:35.104Z,14.10
2019-02-27T11:03:03.633Z,14.80
2019-02-27T11:05:34.669Z,15.50
2019-02-27T11:08:03.210Z,15.70
2019-02-27T11:10:31.773Z,15.70
2019-02-27T11:13:05.506Z,15.90
2019-02-27T11:15:30.443Z,16.10
2019-02-27T11:18:04.215Z,16.00
2019-02-27T11:20:29.075Z,16.30
2019-02-27T11:22:57.513Z,16.60
2019-02-27T11:25:29.926Z,16.90
2019-02-27T11:27:58.362Z,16.70
2019-02-27T11:30:29.445Z,16.80
2019-02-27T11:32:58.140Z,16.90
2019-02-27T11:35:26.582Z,17.10
2019-02-27T11:37:55.023Z,17.30
2019-02-27T11:40:24.707Z,17.70
2019-02-27T11:42:53.166Z,17.90
2019-02-27T11:45:24.592Z,17.80
2019-02-27T11:47:52.039Z,17.70
2019-02-27T11:50:20.642Z,18.10
2019-02-27T11:52:49.381Z,18.10
2019-02-27T11:55:24.464Z,18.00
2019-02-27T11:57:53.095Z,18.00
2019-02-27T12:00:26.272Z,18.40
2019-02-27T12:02:54.850Z,18.00
2019-02-27T12:05:23.272Z,17.70
2019-02-27T12:07:51.919Z,17.90
2019-02-27T12:10:31.071Z,18.10
2019-02-27T12:13:01.029Z,18.40
2019-02-27T12:15:29.876Z,17.60
2019-02-27T12:18:00.386Z,17.60
2019-02-27T12:20:28.486Z,18.20
2019-02-27T12:22:57.177Z,18.10
2019-02-27T12:25:29.033Z,17.50
2019-02-27T12:27:56.536Z,18.10
2019-02-27T12:30:29.443Z,18.70
2019-02-27T12:32:58.063Z,18.80
2019-02-27T12:35:34.250Z,18.80
2019-02-27T12:38:06.814Z,19.10
2019-02-27T12:40:33.178Z,18.80
2019-02-27T12:43:01.695Z,18.90
2019-02-27T12:45:30.967Z,19.10
2019-02-27T12:47:59.511Z,19.30
2019-02-27T12:50:31.100Z,19.50
2019-02-27T12:52:59.275Z,19.20
2019-02-27T12:55:28.262Z,19.50
2019-02-27T12:57:56.703Z,19.30
2019-02-27T13:00:35.141Z,19.70
2019-02-27T13:03:08.207Z,19.60
2019-02-27T13:05:33.841Z,19.70
2019-02-27T13:08:02.271Z,19.90
2019-02-27T13:10:34.182Z,19.90
2019-02-27T13:13:00.907Z,20.00
2019-02-27T13:15:30.165Z,20.00
2019-02-27T13:17:58.665Z,19.60
2019-02-27T13:20:32.132Z,19.90
2019-02-27T13:23:04.092Z,19.90
2019-02-27T13:25:30.745Z,20.00
2019-02-27T13:27:59.266Z,20.00
2019-02-27T13:30:28.517Z,19.80
2019-02-27T13:33:00.610Z,19.80
2019-02-27T13:35:28.574Z,19.90
2019-02-27T13:37:57.471Z,19.90
2019-02-27T13:40:27.350Z,20.10
2019-02-27T13:42:55.868Z,20.10
2019-02-27T13:45:26.520Z,20.00
2019-02-27T13:47:55.133Z,20.00
2019-02-27T13:50:26.745Z,19.70
2019-02-27T13:52:53.960Z,19.60
2019-02-27T13:55:23.359Z,19.40
2019-02-27T13:57:51.899Z,19.50
2019-02-27T14:00:41.198Z,19.70
2019-02-27T14:03:28.965Z,19.70
2019-02-27T14:06:10.215Z,19.80
2019-02-27T14:08:51.082Z,19.70
2019-02-27T14:11:31.801Z,20.00
2019-02-27T14:14:15.129Z,19.80
2019-02-27T14:16:55.522Z,20.00
2019-02-27T14:19:36.708Z,20.00
2019-02-27T14:22:17.010Z,20.10
2019-02-27T14:24:58.354Z,20.20
2019-02-27T14:27:39.103Z,19.90
2019-02-27T14:30:19.982Z,19.40
2019-02-27T14:33:00.988Z,19.40
2019-02-27T14:35:41.874Z,19.20
2019-02-27T14:38:22.942Z,18.50
2019-02-27T14:41:03.395Z,18.80
2019-02-27T14:43:31.836Z,19.20
2019-02-27T14:46:00.285Z,19.20
2019-02-27T14:48:28.719Z,19.00
2019-02-27T14:50:57.165Z,18.90
2019-02-27T14:53:25.687Z,19.30
2019-02-27T14:55:54.134Z,19.50
2019-02-27T14:58:24.379Z,19.50
2019-02-27T15:00:52.843Z,19.00
2019-02-27T15:03:21.301Z,18.90
2019-02-27T15:05:49.747Z,18.70
2019-02-27T15:08:18.174Z,18.90
2019-02-27T15:10:46.630Z,18.80
2019-02-27T15:13:15.051Z,18.40
2019-02-27T15:15:44.384Z,18.70
2019-02-27T15:18:14.043Z,18.80
2019-02-27T15:20:42.547Z,18.60
2019-02-27T15:23:10.967Z,18.90
2019-02-27T15:25:43.218Z,19.00
2019-02-27T15:28:09.603Z,19.10
2019-02-27T15:30:38.125Z,18.90
2019-02-27T15:33:06.552Z,19.00
2019-02-27T15:35:35.125Z,19.10
2019-02-27T15:38:03.830Z,19.00
2019-02-27T15:40:32.278Z,19.10
2019-02-27T15:43:00.716Z,18.90
2019-02-27T15:45:29.593Z,19.00
2019-02-27T15:47:58.022Z,19.00
2019-02-27T15:50:31.938Z,19.00
2019-02-27T15:53:00.401Z,19.20
2019-02-27T15:55:32.769Z,19.00
2019-02-27T15:57:59.234Z,18.70
2019-02-27T16:00:28.764Z,18.40
2019-02-27T16:02:57.303Z,18.30
2019-02-27T16:05:30.164Z,18.20
2019-02-27T16:07:56.033Z,18.10
2019-02-27T16:10:30.263Z,18.00
2019-02-27T16:13:01.073Z,18.10
2019-02-27T16:15:28.930Z,18.10
2019-02-27T16:17:57.381Z,17.80
2019-02-27T16:20:26.784Z,17.50
2019-02-27T16:22:55.521Z,16.70
2019-02-27T16:25:28.671Z,16.90
2019-02-27T16:27:57.189Z,16.10
2019-02-27T16:30:31.352Z,15.10
2019-02-27T16:32:57.194Z,15.00
2019-02-27T16:35:25.791Z,15.20
2019-02-27T16:37:57.482Z,15.50
2019-02-27T16:40:26.149Z,15.70
2019-02-27T16:42:54.663Z,15.80
2019-02-27T16:45:25.880Z,15.70
2019-02-27T16:47:57.331Z,15.40
2019-02-27T16:50:27.883Z,15.20
2019-02-27T16:52:56.469Z,14.50
2019-02-27T16:55:26.322Z,13.40
2019-02-27T16:57:57.466Z,13.10
2019-02-27T17:00:29.976Z,12.90
2019-02-27T17:02:58.470Z,13.20
2019-02-27T17:05:27.108Z,12.70
2019-02-27T17:08:00.260Z,13.10
2019-02-27T17:10:36.324Z,13.30
2019-02-27T17:13:04.914Z,13.10
2019-02-27T17:15:35.971Z,13.00
2019-02-27T17:18:03.577Z,12.60
2019-02-27T17:20:32.093Z,12.60
2019-02-27T17:23:00.563Z,12.60
2019-02-27T17:25:30.174Z,12.40
2019-02-27T17:27:58.956Z,12.30
2019-02-27T17:30:29.798Z,11.80
2019-02-27T17:32:58.231Z,10.70
2019-02-27T17:35:26.663Z,10.30
2019-02-27T17:37:55.116Z,10.60
2019-02-27T17:40:23.803Z,10.90
2019-02-27T17:42:53.445Z,10.60
2019-02-27T17:45:35.252Z,9.80
2019-02-27T17:48:20.766Z,10.20
2019-02-27T17:50:49.208Z,10.00
2019-02-27T17:53:20.422Z,10.30
2019-02-27T17:55:47.886Z,10.20
2019-02-27T17:58:16.323Z,9.90
2019-02-27T18:00:51.123Z,9.90
2019-02-27T18:03:19.283Z,9.70
2019-02-27T18:05:47.785Z,9.80
2019-02-27T18:08:17.063Z,9.50
2019-02-27T18:10:45.831Z,9.40
2019-02-27T18:13:14.256Z,8.70
2019-02-27T18:15:42.998Z,8.40
2019-02-27T18:18:11.436Z,8.50
2019-02-27T18:20:39.905Z,8.50
2019-02-27T18:23:08.323Z,8.60
2019-02-27T18:25:41.192Z,8.60
2019-02-27T18:28:06.932Z,8.50
2019-02-27T18:30:35.373Z,8.20
2019-02-27T18:33:03.823Z,8.10
2019-02-27T18:35:32.265Z,7.70
2019-02-27T18:38:00.732Z,7.90
2019-02-27T18:40:29.193Z,8.20
2019-02-27T18:42:57.656Z,8.20
2019-02-27T18:45:28.422Z,7.90
2019-02-27T18:47:58.733Z,7.80
2019-02-27T18:50:27.121Z,7.40
2019-02-27T18:52:55.569Z,7.20
2019-02-27T18:55:29.408Z,7.20
2019-02-27T18:57:54.160Z,7.20
2019-02-27T19:00:29.665Z,7.00
2019-02-27T19:03:00.354Z,6.60
2019-02-27T19:05:28.866Z,6.70
2019-02-27T19:07:57.295Z,6.70
2019-02-27T19:10:25.815Z,6.50
2019-02-27T19:13:01.089Z,6.20
2019-02-27T19:15:30.197Z,6.20
2019-02-27T19:17:58.631Z,6.20
2019-02-27T19:20:32.878Z,6.30
2019-02-27T19:23:01.330Z,5.90
2019-02-27T19:25:34.332Z,5.90
2019-02-27T19:28:00.055Z,5.80
2019-02-27T19:30:28.929Z,5.60
2019-02-27T19:33:01.630Z,5.60
2019-02-27T19:35:27.588Z,5.60
2019-02-27T19:37:56.026Z,5.60
2019-02-27T19:40:24.480Z,5.70
2019-02-27T19:43:01.532Z,5.50
2019-02-27T19:45:30.246Z,5.40
2019-02-27T19:47:58.667Z,5.50
2019-02-27T19:50:27.754Z,5.00
2019-02-27T19:52:56.179Z,5.20
2019-02-27T19:55:27.446Z,5.10
2019-02-27T19:57:55.022Z,5.00
2019-02-27T20:00:26.614Z,5.00
2019-02-27T20:03:00.273Z,5.00
2019-02-27T20:05:25.342Z,4.80
2019-02-27T20:07:54.328Z,4.60
2019-02-27T20:10:22.827Z,4.70
2019-02-27T20:12:53.685Z,4.40
2019-02-27T20:15:23.449Z,4.10
2019-02-27T20:17:52.039Z,3.70
2019-02-27T20:20:24.616Z,3.10
2019-02-27T20:22:54.821Z,2.70
2019-02-27T20:25:28.181Z,3.10
2019-02-27T20:27:57.850Z,3.50
2019-02-27T20:30:27.018Z,3.40
2019-02-27T20:32:56.119Z,3.40
2019-02-27T20:35:24.634Z,3.30
2019-02-27T20:37:53.157Z,3.30
2019-02-27T20:40:21.759Z,3.30
2019-02-27T20:42:54.440Z,3.50
2019-02-27T20:45:21.499Z,3.20
2019-02-27T20:47:51.293Z,3.20
2019-02-27T20:50:34.747Z,2.70
2019-02-27T20:53:01.846Z,2.90
2019-02-27T20:55:30.860Z,2.90
2019-02-27T20:58:00.484Z,3.00
2019-02-27T21:00:29.022Z,3.00
2019-02-27T21:02:57.491Z,3.00
2019-02-27T21:05:26.265Z,2.70
2019-02-27T21:08:00.916Z,2.50
2019-02-27T21:10:27.410Z,2.70
2019-02-27T21:12:55.887Z,2.70
2019-02-27T21:15:24.981Z,2.50
2019-02-27T21:17:57.494Z,2.50
2019-02-27T21:20:23.934Z,2.60
2019-02-27T21:22:52.429Z,2.60
2019-02-27T21:25:20.861Z,2.40
2019-02-27T21:27:49.436Z,2.20
2019-02-27T21:30:22.339Z,2.30
2019-02-27T21:32:51.026Z,2.40
2019-02-27T21:35:19.662Z,2.20
2019-02-27T21:37:48.118Z,2.30
2019-02-27T21:40:17.483Z,2.30
2019-02-27T21:42:45.991Z,2.20
2019-02-27T21:45:19.447Z,2.20
2019-02-27T21:47:51.292Z,2.10
2019-02-27T21:50:22.065Z,2.00
2019-02-27T21:52:54.469Z,2.10
2019-02-27T21:55:20.686Z,2.20
2019-02-27T21:57:49.212Z,2.00
2019-02-27T22:00:25.432Z,1.80
2019-02-27T22:02:55.111Z,1.60
2019-02-27T22:05:23.634Z,1.70
2019-02-27T22:07:52.329Z,1.80
2019-02-27T22:10:20.928Z,1.80
2019-02-27T22:12:51.235Z,1.80
2019-02-27T22:15:25.122Z,1.70
2019-02-27T22:17:53.566Z,1.70
2019-02-27T22:20:22.096Z,1.00
2019-02-27T22:22:51.082Z,0.80
2019-02-27T22:25:19.524Z,0.20
2019-02-27T22:27:48.418Z,0.40
2019-02-27T22:30:23.588Z,0.10
2019-02-27T22:32:52.034Z,0.30
2019-02-27T22:35:20.547Z,0.70
2019-02-27T22:37:52.414Z,0.80
2019-02-27T22:40:22.811Z,0.90
2019-02-27T22:42:51.258Z,0.90
2019-02-27T22:45:20.556Z,0.90
2019-02-27T22:47:49.941Z,0.70
2019-02-27T22:50:21.634Z,0.50
2019-02-27T22:52:54.259Z,0.50
2019-02-27T22:55:20.445Z,0.50
2019-02-27T22:57:48.909Z,0.50
2019-02-27T23:00:44.059Z,0.70
2019-02-27T23:03:12.595Z,0.80
2019-02-27T23:05:41.135Z,0.40
2019-02-27T23:08:09.645Z,0.50
2019-02-27T23:10:38.190Z,0.40
2019-02-27T23:13:12.401Z,0.40
2019-02-27T23:15:39.145Z,0.40
2019-02-27T23:18:07.648Z,-0.30
2019-02-27T23:20:36.395Z,-0.10
2019-02-27T23:23:05.004Z,0.20
2019-02-27T23:25:33.492Z,0.20
2019-02-27T23:28:02.136Z,0.20
2019-02-27T23:30:30.800Z,0.20
2019-02-27T23:32:59.453Z,0.20
2019-02-27T23:35:29.430Z,0.30
2019-02-27T23:38:02.920Z,0.30
2019-02-27T23:40:28.077Z,0.30
2019-02-27T23:43:02.393Z,0.20
2019-02-27T23:45:27.061Z,0.00
2019-02-27T23:47:55.503Z,0.10
2019-02-27T23:50:23.995Z,-0.10
2019-02-27T23:52:53.224Z,0.00
2019-02-27T23:55:22.499Z,-0.20
2019-02-27T23:57:50.959Z,-0.30
